createdAt,value
2022-08-17T00:00:01.608Z,71.20
2022-08-17T00:02:56.326Z,71.30
2022-08-17T00:05:24.243Z,71.20
2022-08-17T00:07:51.760Z,71.20
2022-08-17T00:10:19.451Z,71.30
2022-08-17T00:12:47.121Z,71.60
2022-08-17T00:15:15.706Z,71.40
2022-08-17T00:17:43.394Z,71.20
2022-08-17T00:20:12.056Z,71.20
2022-08-17T00:22:39.613Z,71.20
2022-08-17T00:25:12.072Z,71.10
2022-08-17T00:27:40.051Z,71.00
2022-08-17T00:30:10.416Z,71.00
2022-08-17T00:33:14.381Z,71.00
2022-08-17T00:35:28.225Z,71.00
2022-08-17T00:37:55.682Z,71.10
2022-08-17T00:40:24.767Z,71.00
2022-08-17T00:42:53.506Z,71.00
2022-08-17T00:45:23.302Z,71.20
2022-08-17T00:47:50.746Z,71.20
2022-08-17T00:50:19.936Z,71.40
2022-08-17T00:52:54.991Z,71.40
2022-08-17T00:55:25.733Z,71.40
2022-08-17T00:57:58.482Z,71.30
2022-08-17T01:00:40.470Z,71.40
2022-08-17T01:03:12.935Z,71.50
2022-08-17T01:05:42.312Z,71.40
2022-08-17T01:08:13.990Z,71.40
2022-08-17T01:10:59.457Z,71.40
2022-08-17T01:13:41.225Z,71.50
2022-08-17T01:16:22.054Z,71.50
2022-08-17T01:18:53.119Z,71.50
2022-08-17T01:21:41.249Z,71.40
2022-08-17T01:24:08.810Z,71.40
2022-08-17T01:26:39.941Z,71.40
2022-08-17T01:29:08.067Z,71.40
2022-08-17T01:31:39.052Z,71.50
2022-08-17T01:34:09.952Z,71.50
2022-08-17T01:36:39.525Z,71.40
2022-08-17T01:39:16.151Z,71.40
2022-08-17T01:41:46.157Z,72.00
2022-08-17T01:44:16.582Z,71.90
2022-08-17T01:46:43.944Z,72.40
2022-08-17T01:49:12.951Z,73.00
2022-08-17T01:51:40.402Z,74.30
2022-08-17T01:54:12.642Z,73.60
2022-08-17T01:56:47.236Z,73.70
2022-08-17T01:59:16.932Z,74.00
2022-08-17T02:01:45.388Z,74.20
2022-08-17T02:04:13.326Z,74.50
2022-08-17T02:06:45.383Z,75.70
2022-08-17T02:09:29.807Z,75.10
2022-08-17T02:11:59.745Z,75.50
2022-08-17T02:14:47.113Z,75.70
2022-08-17T02:17:14.527Z,75.90
2022-08-17T02:19:41.965Z,76.20
2022-08-17T02:22:10.137Z,76.90
2022-08-17T02:25:01.074Z,77.20
2022-08-17T02:27:26.581Z,78.10
2022-08-17T02:29:53.990Z,78.90
2022-08-17T02:32:27.916Z,79.30
2022-08-17T02:34:59.674Z,79.80
2022-08-17T02:37:28.661Z,81.80
2022-08-17T02:39:59.515Z,81.60
2022-08-17T02:42:33.934Z,82.30
2022-08-17T02:45:02.295Z,83.00
2022-08-17T02:47:29.975Z,82.40
2022-08-17T02:49:57.835Z,84.10
2022-08-17T02:52:43.867Z,85.00
2022-08-17T02:55:24.156Z,85.50
2022-08-17T02:57:52.302Z,86.10
2022-08-17T03:00:28.823Z,86.30
2022-08-17T03:02:57.839Z,87.00
2022-08-17T03:05:28.036Z,87.40
2022-08-17T03:07:56.312Z,87.60
2022-08-17T03:10:24.715Z,87.80
2022-08-17T03:12:54.530Z,87.80
2022-08-17T03:15:26.083Z,88.30
2022-08-17T03:17:54.638Z,88.20
2022-08-17T03:20:22.427Z,88.60
2022-08-17T03:22:55.482Z,89.00
2022-08-17T03:25:38.640Z,89.10
2022-08-17T03:28:06.206Z,89.20
2022-08-17T03:30:34.321Z,89.40
2022-08-17T03:33:05.499Z,89.50
2022-08-17T03:35:36.360Z,89.50
2022-08-17T03:38:04.798Z,89.70
2022-08-17T03:40:41.798Z,89.70
2022-08-17T03:43:21.682Z,89.90
2022-08-17T03:46:10.993Z,90.00
2022-08-17T03:49:13.698Z,90.10
2022-08-17T03:52:06.964Z,90.00
2022-08-17T03:54:52.668Z,90.30
2022-08-17T03:57:20.380Z,90.40
2022-08-17T03:59:48.229Z,90.40
2022-08-17T04:02:21.775Z,90.40
2022-08-17T04:04:51.025Z,90.50
2022-08-17T04:07:24.120Z,90.80
2022-08-17T04:09:51.627Z,90.60
2022-08-17T04:12:21.476Z,90.60
2022-08-17T04:14:52.793Z,90.70
2022-08-17T04:17:24.453Z,90.70
2022-08-17T04:19:52.322Z,90.70
2022-08-17T04:22:33.378Z,90.70
2022-08-17T04:25:16.802Z,90.70
2022-08-17T04:27:44.216Z,90.60
2022-08-17T04:30:12.234Z,90.70
2022-08-17T04:33:08.792Z,90.70
2022-08-17T04:35:40.205Z,90.60
2022-08-17T04:38:12.032Z,90.70
2022-08-17T04:40:57.991Z,90.70
2022-08-17T04:43:27.494Z,90.70
2022-08-17T04:46:01.312Z,90.80
2022-08-17T04:48:42.659Z,90.80
2022-08-17T04:51:12.123Z,91.30
2022-08-17T04:53:41.448Z,90.80
2022-08-17T04:56:16.192Z,90.80
2022-08-17T04:58:48.205Z,91.30
2022-08-17T05:01:23.818Z,90.90
2022-08-17T05:03:54.148Z,90.90
2022-08-17T05:06:22.420Z,90.80
2022-08-17T05:08:49.800Z,90.80
2022-08-17T05:11:17.921Z,90.80
2022-08-17T05:13:45.732Z,90.80
2022-08-17T05:16:13.163Z,90.80
2022-08-17T05:18:40.557Z,90.80
2022-08-17T05:21:08.161Z,90.70
2022-08-17T05:23:42.534Z,90.70
2022-08-17T05:26:25.573Z,90.70
2022-08-17T05:29:00.624Z,90.60
2022-08-17T05:31:30.855Z,90.60
2022-08-17T05:33:58.732Z,90.60
2022-08-17T05:36:43.515Z,90.60
2022-08-17T05:39:15.825Z,90.60
2022-08-17T05:41:46.965Z,90.60
2022-08-17T05:44:15.270Z,90.50
2022-08-17T05:46:47.909Z,90.50
2022-08-17T05:49:18.967Z,90.50
2022-08-17T05:52:00.413Z,90.30
2022-08-17T05:54:33.517Z,90.20
2022-08-17T05:57:09.687Z,90.20
2022-08-17T05:59:56.875Z,90.10
2022-08-17T06:02:48.009Z,89.90
2022-08-17T06:05:26.742Z,89.60
2022-08-17T06:08:11.983Z,89.30
2022-08-17T06:10:47.803Z,88.80
2022-08-17T06:13:30.160Z,88.50
2022-08-17T06:16:28.144Z,88.20
2022-08-17T06:19:14.269Z,88.10
2022-08-17T06:21:46.593Z,88.50
2022-08-17T06:24:27.517Z,88.90
2022-08-17T06:27:01.438Z,88.90
2022-08-17T06:29:37.498Z,89.40
2022-08-17T06:32:08.455Z,89.40
2022-08-17T06:34:37.892Z,89.10
2022-08-17T06:37:32.579Z,88.70
2022-08-17T06:40:02.781Z,88.20
2022-08-17T06:43:04.089Z,88.20
2022-08-17T06:45:24.478Z,87.90
2022-08-17T06:48:09.636Z,87.60
2022-08-17T06:50:49.218Z,87.50
2022-08-17T06:53:35.088Z,87.20
2022-08-17T06:56:13.816Z,86.90
2022-08-17T06:58:44.732Z,86.80
2022-08-17T07:01:24.893Z,86.70
2022-08-17T07:03:55.430Z,86.40
2022-08-17T07:06:32.906Z,86.50
2022-08-17T07:09:21.585Z,86.60
2022-08-17T07:11:49.702Z,86.50
2022-08-17T07:14:38.187Z,86.70
2022-08-17T07:17:13.297Z,86.40
2022-08-17T07:19:45.537Z,86.70
2022-08-17T07:22:50.350Z,86.90
2022-08-17T07:25:27.650Z,86.70
2022-08-17T07:27:59.769Z,86.70
2022-08-17T07:30:44.630Z,86.40
2022-08-17T07:33:23.401Z,86.20
2022-08-17T07:35:51.261Z,86.00
2022-08-17T07:38:26.855Z,85.90
2022-08-17T07:40:57.910Z,86.00
2022-08-17T07:43:29.458Z,85.80
2022-08-17T07:46:25.798Z,85.80
2022-08-17T07:49:13.724Z,85.50
2022-08-17T07:51:44.190Z,84.90
2022-08-17T07:54:19.517Z,84.90
2022-08-17T07:56:49.865Z,84.50
2022-08-17T07:59:29.420Z,84.30
2022-08-17T08:02:02.305Z,84.30
2022-08-17T08:04:59.221Z,84.30
2022-08-17T08:07:27.328Z,83.90
2022-08-17T08:10:11.459Z,83.80
2022-08-17T08:12:47.994Z,83.40
2022-08-17T08:15:34.388Z,83.30
2022-08-17T08:18:06.225Z,83.20
2022-08-17T08:20:51.698Z,83.40
2022-08-17T08:23:39.195Z,83.20
2022-08-17T08:26:26.458Z,83.00
2022-08-17T08:29:01.714Z,82.90
2022-08-17T08:31:54.764Z,83.20
2022-08-17T08:35:01.490Z,82.90
2022-08-17T08:38:02.490Z,82.60
2022-08-17T08:40:54.533Z,82.80
2022-08-17T08:43:55.969Z,82.80
2022-08-17T08:46:29.391Z,82.50
2022-08-17T08:49:14.572Z,82.50
2022-08-17T08:52:03.558Z,82.30
2022-08-17T08:54:39.410Z,81.50
2022-08-17T08:57:24.245Z,81.60
2022-08-17T09:00:19.033Z,81.50
2022-08-17T09:03:20.092Z,81.30
2022-08-17T09:06:37.872Z,81.40
2022-08-17T09:09:01.803Z,81.60
2022-08-17T09:12:03.457Z,81.50
2022-08-17T09:15:03.742Z,81.10
2022-08-17T09:17:46.099Z,80.20
2022-08-17T09:20:40.586Z,79.40
2022-08-17T09:23:18.310Z,79.10
2022-08-17T09:26:22.819Z,78.70
2022-08-17T09:28:53.588Z,78.10
2022-08-17T09:31:31.266Z,78.40
2022-08-17T09:34:05.444Z,78.60
2022-08-17T09:36:40.597Z,79.40
2022-08-17T09:39:25.251Z,80.00
2022-08-17T09:42:00.390Z,80.70
2022-08-17T09:45:05.282Z,81.30
2022-08-17T09:47:48.023Z,81.50
2022-08-17T09:51:04.358Z,82.60
2022-08-17T09:53:15.163Z,83.80
2022-08-17T09:56:16.899Z,84.60
2022-08-17T09:59:13.184Z,85.30
2022-08-17T10:01:52.330Z,86.30
2022-08-17T10:04:29.472Z,86.30
2022-08-17T10:07:04.438Z,86.10
2022-08-17T10:09:40.751Z,86.00
2022-08-17T10:12:47.204Z,86.60
2022-08-17T10:15:37.381Z,86.20
2022-08-17T10:18:20.908Z,86.70
2022-08-17T10:21:28.488Z,86.60
2022-08-17T10:24:37.365Z,86.80
2022-08-17T10:27:10.929Z,86.70
2022-08-17T10:29:49.788Z,86.40
2022-08-17T10:32:27.462Z,86.60
2022-08-17T10:35:44.080Z,86.40
2022-08-17T10:38:29.288Z,85.50
2022-08-17T10:41:06.209Z,85.40
2022-08-17T10:44:38.860Z,85.30
2022-08-17T10:47:08.552Z,84.80
2022-08-17T10:49:47.973Z,84.90
2022-08-17T10:52:27.415Z,85.10
2022-08-17T10:54:58.440Z,85.00
2022-08-17T10:57:35.197Z,85.40
2022-08-17T11:00:15.858Z,84.20
2022-08-17T11:02:49.251Z,84.40
2022-08-17T11:05:23.939Z,84.00
2022-08-17T11:08:10.703Z,85.10
2022-08-17T11:11:05.658Z,83.30
2022-08-17T11:13:33.121Z,83.20
2022-08-17T11:16:17.217Z,83.00
2022-08-17T11:19:17.889Z,82.60
2022-08-17T11:22:14.606Z,83.00
2022-08-17T11:24:51.350Z,82.40
2022-08-17T11:27:31.724Z,82.60
2022-08-17T11:30:06.324Z,82.60
2022-08-17T11:32:47.585Z,82.70
2022-08-17T11:35:22.245Z,82.40
2022-08-17T11:37:59.014Z,82.60
2022-08-17T11:40:54.228Z,82.60
2022-08-17T11:44:05.451Z,83.30
2022-08-17T11:47:42.500Z,82.20
2022-08-17T11:50:40.600Z,82.10
2022-08-17T11:53:39.919Z,82.50
2022-08-17T11:56:11.777Z,82.20
2022-08-17T11:58:43.023Z,82.60
2022-08-17T12:01:33.231Z,82.90
2022-08-17T12:04:31.870Z,82.90
2022-08-17T12:07:20.519Z,83.20
2022-08-17T12:09:50.887Z,83.40
2022-08-17T12:12:22.707Z,83.90
2022-08-17T12:15:11.144Z,83.60
2022-08-17T12:17:42.740Z,83.90
2022-08-17T12:20:16.263Z,84.00
2022-08-17T12:23:00.944Z,83.90
2022-08-17T12:25:43.466Z,84.00
2022-08-17T12:28:33.214Z,84.10
2022-08-17T12:31:14.252Z,84.10
2022-08-17T12:33:44.644Z,84.40
2022-08-17T12:36:15.812Z,84.40
2022-08-17T12:38:57.233Z,84.90
2022-08-17T12:41:43.391Z,84.80
2022-08-17T12:44:20.968Z,85.00
2022-08-17T12:46:58.724Z,85.20
2022-08-17T12:49:29.866Z,85.50
2022-08-17T12:52:08.359Z,85.90
2022-08-17T12:54:39.638Z,86.00
2022-08-17T12:57:13.432Z,86.40
2022-08-17T12:59:44.362Z,86.40
2022-08-17T13:02:37.535Z,86.60
2022-08-17T13:05:07.433Z,86.70
2022-08-17T13:07:42.403Z,87.20
2022-08-17T13:10:18.413Z,87.30
2022-08-17T13:12:45.828Z,87.20
2022-08-17T13:15:38.142Z,87.60
2022-08-17T13:18:40.430Z,87.50
2022-08-17T13:21:27.765Z,87.40
2022-08-17T13:24:00.903Z,87.40
2022-08-17T13:26:33.758Z,87.30
2022-08-17T13:29:05.404Z,86.90
2022-08-17T13:31:47.466Z,86.60
2022-08-17T13:34:29.254Z,86.60
2022-08-17T13:37:27.110Z,86.50
2022-08-17T13:40:24.369Z,86.50
2022-08-17T13:42:54.293Z,86.90
2022-08-17T13:45:35.094Z,86.90
2022-08-17T13:48:26.793Z,86.90
2022-08-17T13:50:57.311Z,86.50
2022-08-17T13:53:27.548Z,86.60
2022-08-17T13:56:37.224Z,86.50
2022-08-17T13:59:13.100Z,86.60
2022-08-17T14:01:44.799Z,86.60
2022-08-17T14:04:16.609Z,86.60
2022-08-17T14:06:52.275Z,86.40
2022-08-17T14:09:24.306Z,86.50
2022-08-17T14:11:53.978Z,86.50
2022-08-17T14:14:23.328Z,87.00
2022-08-17T14:16:52.689Z,87.10
2022-08-17T14:19:21.945Z,87.00
2022-08-17T14:21:50.108Z,87.00
2022-08-17T14:24:44.618Z,86.90
2022-08-17T14:27:12.623Z,87.00
2022-08-17T14:29:41.242Z,87.40
2022-08-17T14:32:29.563Z,87.30
2022-08-17T14:34:58.337Z,87.00
2022-08-17T14:37:28.037Z,87.40
2022-08-17T14:39:57.765Z,88.30
2022-08-17T14:42:27.432Z,87.20
2022-08-17T14:44:56.283Z,86.90
2022-08-17T14:47:23.716Z,86.70
2022-08-17T14:49:51.228Z,87.10
2022-08-17T14:52:24.035Z,87.20
2022-08-17T14:54:52.950Z,87.10
2022-08-17T14:57:33.431Z,87.30
2022-08-17T15:00:02.549Z,87.20
2022-08-17T15:02:31.057Z,87.60
2022-08-17T15:05:00.753Z,87.30
2022-08-17T15:07:30.861Z,87.10
2022-08-17T15:10:02.364Z,86.50
2022-08-17T15:12:34.641Z,86.00
2022-08-17T15:15:05.428Z,85.90
2022-08-17T15:17:45.021Z,85.90
2022-08-17T15:20:17.723Z,86.10
2022-08-17T15:22:47.055Z,86.10
2022-08-17T15:25:14.641Z,86.20
2022-08-17T15:27:42.553Z,85.90
2022-08-17T15:30:10.999Z,86.00
2022-08-17T15:32:40.917Z,85.80
2022-08-17T15:35:15.590Z,85.60
2022-08-17T15:37:44.667Z,86.10
2022-08-17T15:40:12.867Z,86.40
2022-08-17T15:42:41.054Z,86.40
2022-08-17T15:45:14.026Z,86.10
2022-08-17T15:47:42.571Z,85.70
2022-08-17T15:50:10.865Z,85.30
2022-08-17T15:52:40.532Z,85.40
2022-08-17T15:55:12.574Z,85.20
2022-08-17T15:57:40.523Z,84.60
2022-08-17T16:00:10.191Z,84.50
2022-08-17T16:03:45.811Z,84.30
2022-08-17T16:05:31.125Z,84.20
2022-08-17T16:07:59.767Z,84.20
2022-08-17T16:10:35.447Z,84.00
2022-08-17T16:13:05.379Z,84.30
2022-08-17T16:15:44.858Z,84.30
2022-08-17T16:18:18.672Z,84.20
2022-08-17T16:20:46.043Z,84.60
2022-08-17T16:23:18.525Z,84.40
2022-08-17T16:25:52.980Z,84.60
2022-08-17T16:28:30.917Z,84.90
2022-08-17T16:31:07.935Z,84.40
2022-08-17T16:33:37.523Z,84.20
2022-08-17T16:36:07.236Z,84.10
2022-08-17T16:38:35.816Z,84.10
2022-08-17T16:41:05.105Z,84.00
2022-08-17T16:43:34.038Z,84.00
2022-08-17T16:46:02.002Z,83.90
2022-08-17T16:48:29.897Z,83.50
2022-08-17T16:50:58.577Z,83.50
2022-08-17T16:53:32.017Z,83.40
2022-08-17T16:55:59.361Z,83.40
2022-08-17T16:58:26.694Z,83.40
2022-08-17T17:00:54.392Z,83.20
2022-08-17T17:03:24.760Z,83.20
2022-08-17T17:06:16.614Z,83.10
2022-08-17T17:09:08.003Z,84.20
2022-08-17T17:11:47.530Z,83.00
2022-08-17T17:14:33.616Z,83.20
2022-08-17T17:17:04.909Z,83.20
2022-08-17T17:19:39.143Z,83.20
2022-08-17T17:22:21.791Z,82.90
2022-08-17T17:25:01.508Z,82.90
2022-08-17T17:27:50.040Z,83.30
2022-08-17T17:30:50.653Z,83.10
2022-08-17T17:33:32.855Z,83.10
2022-08-17T17:36:07.333Z,83.20
2022-08-17T17:38:41.777Z,83.10
2022-08-17T17:41:15.377Z,83.30
2022-08-17T17:43:43.263Z,83.10
2022-08-17T17:46:30.529Z,83.00
2022-08-17T17:48:58.357Z,82.90
2022-08-17T17:52:09.076Z,83.20
2022-08-17T17:54:50.001Z,83.00
2022-08-17T17:58:10.269Z,83.10
2022-08-17T18:00:44.088Z,83.10
2022-08-17T18:03:23.448Z,83.30
2022-08-17T18:06:10.595Z,83.10
2022-08-17T18:08:47.152Z,83.10
2022-08-17T18:11:25.139Z,83.20
2022-08-17T18:14:01.594Z,83.20
2022-08-17T18:16:32.746Z,83.10
2022-08-17T18:19:00.660Z,82.90
2022-08-17T18:21:40.066Z,83.00
2022-08-17T18:24:10.409Z,82.50
2022-08-17T18:26:41.859Z,82.70
2022-08-17T18:29:31.925Z,82.60
2022-08-17T18:32:26.930Z,82.10
2022-08-17T18:35:01.626Z,82.10
2022-08-17T18:37:41.197Z,82.40
2022-08-17T18:40:25.934Z,82.40
2022-08-17T18:43:24.334Z,82.60
2022-08-17T18:46:15.569Z,82.50
2022-08-17T18:49:19.203Z,82.80
2022-08-17T18:51:46.824Z,81.80
2022-08-17T18:54:23.970Z,83.30
2022-08-17T18:56:57.838Z,83.20
2022-08-17T18:59:30.277Z,83.30
2022-08-17T19:02:10.263Z,83.40
2022-08-17T19:05:01.235Z,83.70
2022-08-17T19:07:34.814Z,83.50
2022-08-17T19:10:28.803Z,83.60
2022-08-17T19:13:11.305Z,83.40
2022-08-17T19:16:14.124Z,83.40
2022-08-17T19:19:14.444Z,83.30
2022-08-17T19:22:02.733Z,83.50
2022-08-17T19:24:33.779Z,83.60
2022-08-17T19:27:42.056Z,83.70
2022-08-17T19:30:17.634Z,82.80
2022-08-17T19:32:45.002Z,83.80
2022-08-17T19:35:17.367Z,84.00
2022-08-17T19:38:18.303Z,84.20
2022-08-17T19:40:59.646Z,84.10
2022-08-17T19:44:15.487Z,84.40
2022-08-17T19:47:01.517Z,84.40
2022-08-17T19:49:50.345Z,84.50
2022-08-17T19:52:42.709Z,84.50
2022-08-17T19:55:22.395Z,84.50
2022-08-17T19:57:59.533Z,84.80
2022-08-17T20:00:26.971Z,84.60
2022-08-17T20:03:16.161Z,84.70
2022-08-17T20:06:12.059Z,84.60
2022-08-17T20:09:14.959Z,85.00
2022-08-17T20:11:57.973Z,84.40
2022-08-17T20:14:35.824Z,84.60
2022-08-17T20:17:04.392Z,84.70
2022-08-17T20:20:19.401Z,84.80
2022-08-17T20:23:23.389Z,84.90
2022-08-17T20:26:03.435Z,85.00
2022-08-17T20:28:35.141Z,85.20
2022-08-17T20:31:25.493Z,85.40
2022-08-17T20:34:16.393Z,85.50
2022-08-17T20:37:09.139Z,85.60
2022-08-17T20:39:46.590Z,85.80
2022-08-17T20:42:20.300Z,85.90
2022-08-17T20:44:58.032Z,86.10
2022-08-17T20:47:29.114Z,86.20
2022-08-17T20:50:02.373Z,86.20
2022-08-17T20:52:36.004Z,86.50
2022-08-17T20:55:04.488Z,86.60
2022-08-17T20:57:32.052Z,86.40
2022-08-17T21:00:16.421Z,86.60
2022-08-17T21:02:46.820Z,86.50
2022-08-17T21:05:57.200Z,86.50
2022-08-17T21:08:32.182Z,86.40
2022-08-17T21:11:20.546Z,86.70
2022-08-17T21:14:17.652Z,86.80
2022-08-17T21:17:17.620Z,86.90
2022-08-17T21:20:11.367Z,86.90
2022-08-17T21:22:54.813Z,87.00
2022-08-17T21:25:49.133Z,86.90
2022-08-17T21:29:01.117Z,86.90
2022-08-17T21:31:33.190Z,86.80
2022-08-17T21:34:25.906Z,86.90
2022-08-17T21:36:53.402Z,85.90
2022-08-17T21:39:33.403Z,87.10
2022-08-17T21:42:01.361Z,86.40
2022-08-17T21:44:35.734Z,87.30
2022-08-17T21:47:32.643Z,88.50
2022-08-17T21:50:23.637Z,87.60
2022-08-17T21:52:55.964Z,87.50
2022-08-17T21:55:29.608Z,87.40
2022-08-17T21:58:14.506Z,87.40
2022-08-17T22:00:44.783Z,87.40
2022-08-17T22:03:25.833Z,87.40
2022-08-17T22:05:53.251Z,87.50
2022-08-17T22:08:23.796Z,87.80
2022-08-17T22:11:01.180Z,87.50
2022-08-17T22:13:29.624Z,87.80
2022-08-17T22:16:28.852Z,87.90
2022-08-17T22:18:59.269Z,87.60
2022-08-17T22:21:27.673Z,87.90
2022-08-17T22:24:16.273Z,88.00
2022-08-17T22:27:07.852Z,87.80
2022-08-17T22:29:58.283Z,87.60
2022-08-17T22:32:37.796Z,87.70
2022-08-17T22:35:32.786Z,87.80
2022-08-17T22:38:18.511Z,87.80
2022-08-17T22:41:12.524Z,87.50
2022-08-17T22:43:43.739Z,88.10
2022-08-17T22:46:15.203Z,88.70
2022-08-17T22:48:59.749Z,88.30
2022-08-17T22:51:30.863Z,88.80
2022-08-17T22:54:20.328Z,88.50
2022-08-17T22:57:20.554Z,88.50
2022-08-17T22:59:52.006Z,88.60
2022-08-17T23:02:29.063Z,88.60
2022-08-17T23:05:15.819Z,88.60
2022-08-17T23:07:45.788Z,88.60
2022-08-17T23:10:14.205Z,88.70
2022-08-17T23:12:42.060Z,88.70
2022-08-17T23:15:16.903Z,88.90
2022-08-17T23:17:45.297Z,88.70
2022-08-17T23:20:15.409Z,88.80
2022-08-17T23:22:52.287Z,88.80
2022-08-17T23:25:29.106Z,88.70
2022-08-17T23:27:58.410Z,88.70
2022-08-17T23:30:28.535Z,88.70
2022-08-17T23:32:59.624Z,88.70
2022-08-17T23:35:39.946Z,88.70
2022-08-17T23:38:13.017Z,88.60
2022-08-17T23:40:41.115Z,88.60
2022-08-17T23:43:17.580Z,88.60
2022-08-17T23:45:54.365Z,88.50
2022-08-17T23:48:32.561Z,88.40
2022-08-17T23:51:18.986Z,88.40
2022-08-17T23:53:52.049Z,88.20
2022-08-17T23:56:25.718Z,88.30
2022-08-17T23:58:55.093Z,88.20
